sensor_id;sensor_type;location;lat;lon;timestamp;P1;durP1;ratioP1;P2;durP2;ratioP2
70322;SDS011;57735;56.264;43.898;2023-07-13T00:01:16;6.28;;;3.28;;
70322;SDS011;57735;56.264;43.898;2023-07-13T00:03:48;7.88;;;3.67;;
70322;SDS011;57735;56.264;43.898;2023-07-13T00:06:19;6.65;;;3.35;;
70322;SDS011;57735;56.264;43.898;2023-07-13T00:08:50;7.13;;;3.97;;
70322;SDS011;57735;56.264;43.898;2023-07-13T00:11:21;10.48;;;3.83;;
70322;SDS011;57735;56.264;43.898;2023-07-13T00:13:52;9.15;;;3.47;;
70322;SDS011;57735;56.264;43.898;2023-07-13T00:16:23;7.82;;;3.85;;
70322;SDS011;57735;56.264;43.898;2023-07-13T00:18:54;8.02;;;4.00;;
70322;SDS011;57735;56.264;43.898;2023-07-13T00:21:25;6.65;;;3.97;;
70322;SDS011;57735;56.264;43.898;2023-07-13T00:23:56;5.80;;;3.40;;
70322;SDS011;57735;56.264;43.898;2023-07-13T00:26:27;6.40;;;3.35;;
70322;SDS011;57735;56.264;43.898;2023-07-13T00:28:58;13.13;;;3.92;;
70322;SDS011;57735;56.264;43.898;2023-07-13T00:31:30;8.45;;;4.18;;
70322;SDS011;57735;56.264;43.898;2023-07-13T00:34:03;6.10;;;3.88;;
70322;SDS011;57735;56.264;43.898;2023-07-13T00:36:37;6.05;;;3.80;;
70322;SDS011;57735;56.264;43.898;2023-07-13T00:39:07;7.28;;;3.20;;
70322;SDS011;57735;56.264;43.898;2023-07-13T00:41:38;6.30;;;3.40;;
70322;SDS011;57735;56.264;43.898;2023-07-13T00:44:13;5.32;;;3.65;;
70322;SDS011;57735;56.264;43.898;2023-07-13T00:46:48;8.25;;;3.85;;
70322;SDS011;57735;56.264;43.898;2023-07-13T00:49:20;8.70;;;4.03;;
70322;SDS011;57735;56.264;43.898;2023-07-13T00:52:00;8.90;;;3.95;;
70322;SDS011;57735;56.264;43.898;2023-07-13T00:54:41;8.32;;;3.67;;
70322;SDS011;57735;56.264;43.898;2023-07-13T00:57:18;7.28;;;3.50;;
70322;SDS011;57735;56.264;43.898;2023-07-13T00:59:52;9.70;;;3.95;;
70322;SDS011;57735;56.264;43.898;2023-07-13T01:02:26;7.40;;;3.50;;
70322;SDS011;57735;56.264;43.898;2023-07-13T01:04:59;8.32;;;3.92;;
70322;SDS011;57735;56.264;43.898;2023-07-13T01:07:30;7.70;;;4.00;;
70322;SDS011;57735;56.264;43.898;2023-07-13T01:10:02;7.07;;;3.70;;
70322;SDS011;57735;56.264;43.898;2023-07-13T01:12:34;7.53;;;3.95;;
70322;SDS011;57735;56.264;43.898;2023-07-13T01:15:05;9.30;;;4.38;;
70322;SDS011;57735;56.264;43.898;2023-07-13T01:17:56;6.55;;;3.90;;
70322;SDS011;57735;56.264;43.898;2023-07-13T01:20:27;7.82;;;3.92;;
70322;SDS011;57735;56.264;43.898;2023-07-13T01:22:58;10.55;;;3.90;;
70322;SDS011;57735;56.264;43.898;2023-07-13T01:25:30;7.68;;;4.00;;
70322;SDS011;57735;56.264;43.898;2023-07-13T01:28:01;8.68;;;3.83;;
70322;SDS011;57735;56.264;43.898;2023-07-13T01:30:41;12.27;;;3.97;;
70322;SDS011;57735;56.264;43.898;2023-07-13T01:33:17;9.00;;;3.85;;
70322;SDS011;57735;56.264;43.898;2023-07-13T01:35:48;7.32;;;3.72;;
70322;SDS011;57735;56.264;43.898;2023-07-13T01:38:20;7.75;;;3.70;;
70322;SDS011;57735;56.264;43.898;2023-07-13T01:40:55;7.00;;;3.60;;
70322;SDS011;57735;56.264;43.898;2023-07-13T01:43:26;14.60;;;4.60;;
70322;SDS011;57735;56.264;43.898;2023-07-13T01:45:57;4.00;;;3.40;;
70322;SDS011;57735;56.264;43.898;2023-07-13T01:48:28;9.38;;;3.35;;
70322;SDS011;57735;56.264;43.898;2023-07-13T01:50:59;6.65;;;3.40;;
70322;SDS011;57735;56.264;43.898;2023-07-13T01:53:32;8.38;;;4.43;;
70322;SDS011;57735;56.264;43.898;2023-07-13T01:56:03;5.22;;;3.63;;
70322;SDS011;57735;56.264;43.898;2023-07-13T01:58:34;7.72;;;3.42;;
70322;SDS011;57735;56.264;43.898;2023-07-13T02:01:05;8.95;;;3.60;;
70322;SDS011;57735;56.264;43.898;2023-07-13T02:03:35;4.78;;;3.50;;
70322;SDS011;57735;56.264;43.898;2023-07-13T02:06:06;9.45;;;3.60;;
70322;SDS011;57735;56.264;43.898;2023-07-13T02:08:37;11.27;;;4.00;;
70322;SDS011;57735;56.264;43.898;2023-07-13T02:11:08;11.05;;;3.95;;
70322;SDS011;57735;56.264;43.898;2023-07-13T02:13:39;6.20;;;3.95;;
70322;SDS011;57735;56.264;43.898;2023-07-13T02:16:10;13.27;;;3.65;;
70322;SDS011;57735;56.264;43.898;2023-07-13T02:18:41;8.75;;;3.47;;
70322;SDS011;57735;56.264;43.898;2023-07-13T02:21:11;8.63;;;3.13;;
70322;SDS011;57735;56.264;43.898;2023-07-13T02:23:42;7.18;;;3.88;;
70322;SDS011;57735;56.264;43.898;2023-07-13T02:26:14;6.40;;;3.50;;
70322;SDS011;57735;56.264;43.898;2023-07-13T02:28:47;6.28;;;3.42;;
70322;SDS011;57735;56.264;43.898;2023-07-13T02:31:18;8.88;;;3.70;;
70322;SDS011;57735;56.264;43.898;2023-07-13T02:33:49;5.85;;;3.70;;
70322;SDS011;57735;56.264;43.898;2023-07-13T02:36:20;12.00;;;3.40;;
70322;SDS011;57735;56.264;43.898;2023-07-13T02:38:53;6.70;;;3.00;;
70322;SDS011;57735;56.264;43.898;2023-07-13T02:41:24;8.32;;;3.20;;
70322;SDS011;57735;56.264;43.898;2023-07-13T02:43:58;9.25;;;3.30;;
70322;SDS011;57735;56.264;43.898;2023-07-13T02:46:35;10.38;;;2.80;;
70322;SDS011;57735;56.264;43.898;2023-07-13T02:49:09;5.40;;;3.00;;
70322;SDS011;57735;56.264;43.898;2023-07-13T02:51:40;5.63;;;3.50;;
70322;SDS011;57735;56.264;43.898;2023-07-13T02:54:14;8.73;;;4.68;;
70322;SDS011;57735;56.264;43.898;2023-07-13T02:56:45;5.38;;;3.28;;
70322;SDS011;57735;56.264;43.898;2023-07-13T02:59:16;7.85;;;3.42;;
70322;SDS011;57735;56.264;43.898;2023-07-13T03:01:47;6.90;;;3.15;;
70322;SDS011;57735;56.264;43.898;2023-07-13T03:04:18;7.00;;;3.08;;
70322;SDS011;57735;56.264;43.898;2023-07-13T03:06:49;7.00;;;3.10;;
70322;SDS011;57735;56.264;43.898;2023-07-13T03:09:24;6.85;;;2.75;;
70322;SDS011;57735;56.264;43.898;2023-07-13T03:14:26;6.25;;;3.17;;
70322;SDS011;57735;56.264;43.898;2023-07-13T03:16:57;4.90;;;2.50;;
70322;SDS011;57735;56.264;43.898;2023-07-13T03:19:28;7.75;;;3.10;;
70322;SDS011;57735;56.264;43.898;2023-07-13T03:21:59;6.60;;;3.00;;
70322;SDS011;57735;56.264;43.898;2023-07-13T03:24:29;6.30;;;3.05;;
70322;SDS011;57735;56.264;43.898;2023-07-13T03:27:04;7.38;;;3.38;;
70322;SDS011;57735;56.264;43.898;2023-07-13T03:29:35;11.80;;;2.95;;
70322;SDS011;57735;56.264;43.898;2023-07-13T03:32:09;7.90;;;2.83;;
70322;SDS011;57735;56.264;43.898;2023-07-13T03:34:40;8.65;;;2.65;;
70322;SDS011;57735;56.264;43.898;2023-07-13T03:37:11;4.45;;;2.67;;
70322;SDS011;57735;56.264;43.898;2023-07-13T03:39:42;3.70;;;2.47;;
70322;SDS011;57735;56.264;43.898;2023-07-13T03:42:13;9.15;;;2.90;;
70322;SDS011;57735;56.264;43.898;2023-07-13T03:44:44;12.00;;;3.00;;
70322;SDS011;57735;56.264;43.898;2023-07-13T03:47:20;7.63;;;2.92;;
70322;SDS011;57735;56.264;43.898;2023-07-13T03:49:51;6.38;;;2.40;;
70322;SDS011;57735;56.264;43.898;2023-07-13T03:52:23;6.13;;;2.70;;
70322;SDS011;57735;56.264;43.898;2023-07-13T03:54:54;4.72;;;2.40;;
70322;SDS011;57735;56.264;43.898;2023-07-13T03:57:27;13.82;;;4.78;;
70322;SDS011;57735;56.264;43.898;2023-07-13T03:59:58;3.28;;;2.78;;
70322;SDS011;57735;56.264;43.898;2023-07-13T04:02:29;3.95;;;2.22;;
70322;SDS011;57735;56.264;43.898;2023-07-13T04:05:00;10.38;;;2.70;;
70322;SDS011;57735;56.264;43.898;2023-07-13T04:07:34;5.95;;;2.15;;
70322;SDS011;57735;56.264;43.898;2023-07-13T04:10:08;5.68;;;2.65;;
70322;SDS011;57735;56.264;43.898;2023-07-13T04:12:42;4.03;;;2.22;;
70322;SDS011;57735;56.264;43.898;2023-07-13T04:15:13;9.60;;;2.42;;
70322;SDS011;57735;56.264;43.898;2023-07-13T04:17:44;6.97;;;2.50;;
70322;SDS011;57735;56.264;43.898;2023-07-13T04:20:17;4.63;;;2.42;;
70322;SDS011;57735;56.264;43.898;2023-07-13T04:22:51;4.85;;;2.65;;
70322;SDS011;57735;56.264;43.898;2023-07-13T04:25:23;3.47;;;2.53;;
70322;SDS011;57735;56.264;43.898;2023-07-13T04:27:54;8.55;;;2.58;;
70322;SDS011;57735;56.264;43.898;2023-07-13T04:30:25;3.53;;;2.10;;
70322;SDS011;57735;56.264;43.898;2023-07-13T04:32:56;4.20;;;2.33;;
70322;SDS011;57735;56.264;43.898;2023-07-13T04:35:27;3.88;;;2.28;;
70322;SDS011;57735;56.264;43.898;2023-07-13T04:38:01;5.97;;;2.60;;
70322;SDS011;57735;56.264;43.898;2023-07-13T04:40:36;4.13;;;2.33;;
70322;SDS011;57735;56.264;43.898;2023-07-13T04:43:07;4.30;;;2.30;;
70322;SDS011;57735;56.264;43.898;2023-07-13T04:45:38;3.53;;;2.40;;
70322;SDS011;57735;56.264;43.898;2023-07-13T04:48:12;5.25;;;2.35;;
70322;SDS011;57735;56.264;43.898;2023-07-13T04:50:42;3.85;;;2.20;;
70322;SDS011;57735;56.264;43.898;2023-07-13T04:53:19;9.27;;;2.45;;
70322;SDS011;57735;56.264;43.898;2023-07-13T04:55:52;3.50;;;2.03;;
70322;SDS011;57735;56.264;43.898;2023-07-13T04:58:23;14.07;;;3.50;;
70322;SDS011;57735;56.264;43.898;2023-07-13T05:00:59;9.43;;;3.47;;
70322;SDS011;57735;56.264;43.898;2023-07-13T05:03:32;3.95;;;2.50;;
70322;SDS011;57735;56.264;43.898;2023-07-13T05:06:04;8.93;;;4.28;;
70322;SDS011;57735;56.264;43.898;2023-07-13T05:08:37;7.27;;;2.90;;
70322;SDS011;57735;56.264;43.898;2023-07-13T05:11:08;6.63;;;2.95;;
70322;SDS011;57735;56.264;43.898;2023-07-13T05:13:39;7.43;;;2.28;;
70322;SDS011;57735;56.264;43.898;2023-07-13T05:16:09;5.25;;;2.90;;
70322;SDS011;57735;56.264;43.898;2023-07-13T05:18:40;7.03;;;2.20;;
70322;SDS011;57735;56.264;43.898;2023-07-13T05:21:11;2.85;;;1.65;;
70322;SDS011;57735;56.264;43.898;2023-07-13T05:23:42;7.65;;;2.20;;
70322;SDS011;57735;56.264;43.898;2023-07-13T05:26:13;4.57;;;2.20;;
70322;SDS011;57735;56.264;43.898;2023-07-13T05:28:44;6.20;;;1.98;;
70322;SDS011;57735;56.264;43.898;2023-07-13T05:31:14;3.08;;;1.90;;
70322;SDS011;57735;56.264;43.898;2023-07-13T05:33:45;3.47;;;2.00;;
70322;SDS011;57735;56.264;43.898;2023-07-13T05:36:16;5.93;;;1.60;;
70322;SDS011;57735;56.264;43.898;2023-07-13T05:38:47;5.47;;;2.13;;
70322;SDS011;57735;56.264;43.898;2023-07-13T05:41:18;5.20;;;2.13;;
70322;SDS011;57735;56.264;43.898;2023-07-13T05:43:51;9.47;;;2.30;;
70322;SDS011;57735;56.264;43.898;2023-07-13T05:46:22;4.65;;;2.10;;
70322;SDS011;57735;56.264;43.898;2023-07-13T05:48:53;7.93;;;2.05;;
70322;SDS011;57735;56.264;43.898;2023-07-13T05:51:24;5.65;;;2.20;;
70322;SDS011;57735;56.264;43.898;2023-07-13T05:53:55;2.92;;;1.90;;
70322;SDS011;57735;56.264;43.898;2023-07-13T05:56:26;3.17;;;1.98;;
70322;SDS011;57735;56.264;43.898;2023-07-13T05:58:57;5.90;;;2.08;;
70322;SDS011;57735;56.264;43.898;2023-07-13T06:01:31;3.10;;;1.83;;
70322;SDS011;57735;56.264;43.898;2023-07-13T06:04:02;2.83;;;1.80;;
70322;SDS011;57735;56.264;43.898;2023-07-13T06:06:33;5.55;;;2.22;;
70322;SDS011;57735;56.264;43.898;2023-07-13T06:09:04;2.33;;;1.70;;
70322;SDS011;57735;56.264;43.898;2023-07-13T06:11:35;4.13;;;2.13;;
70322;SDS011;57735;56.264;43.898;2023-07-13T06:14:06;3.95;;;2.38;;
70322;SDS011;57735;56.264;43.898;2023-07-13T06:16:40;7.67;;;2.33;;
70322;SDS011;57735;56.264;43.898;2023-07-13T06:19:11;7.78;;;2.30;;
70322;SDS011;57735;56.264;43.898;2023-07-13T06:21:42;2.85;;;2.20;;
70322;SDS011;57735;56.264;43.898;2023-07-13T06:24:16;3.10;;;1.97;;
70322;SDS011;57735;56.264;43.898;2023-07-13T06:26:47;8.50;;;2.00;;
70322;SDS011;57735;56.264;43.898;2023-07-13T06:29:27;4.80;;;2.25;;
70322;SDS011;57735;56.264;43.898;2023-07-13T06:31:58;12.45;;;2.25;;
70322;SDS011;57735;56.264;43.898;2023-07-13T06:34:32;5.05;;;2.17;;
70322;SDS011;57735;56.264;43.898;2023-07-13T06:37:02;7.15;;;2.35;;
70322;SDS011;57735;56.264;43.898;2023-07-13T06:39:33;3.03;;;1.80;;
70322;SDS011;57735;56.264;43.898;2023-07-13T06:42:05;5.10;;;2.10;;
70322;SDS011;57735;56.264;43.898;2023-07-13T06:44:36;7.38;;;2.40;;
70322;SDS011;57735;56.264;43.898;2023-07-13T06:47:07;3.13;;;1.83;;
70322;SDS011;57735;56.264;43.898;2023-07-13T06:49:38;6.70;;;2.00;;
70322;SDS011;57735;56.264;43.898;2023-07-13T06:52:08;3.20;;;1.58;;
70322;SDS011;57735;56.264;43.898;2023-07-13T06:54:39;3.08;;;1.52;;
70322;SDS011;57735;56.264;43.898;2023-07-13T06:57:10;2.28;;;1.45;;
70322;SDS011;57735;56.264;43.898;2023-07-13T06:59:41;2.58;;;1.60;;
70322;SDS011;57735;56.264;43.898;2023-07-13T07:02:12;1.70;;;1.38;;
70322;SDS011;57735;56.264;43.898;2023-07-13T07:04:43;3.20;;;1.55;;
70322;SDS011;57735;56.264;43.898;2023-07-13T07:07:14;4.68;;;1.45;;
70322;SDS011;57735;56.264;43.898;2023-07-13T07:09:44;2.88;;;1.85;;
70322;SDS011;57735;56.264;43.898;2023-07-13T07:12:15;3.38;;;2.00;;
70322;SDS011;57735;56.264;43.898;2023-07-13T07:14:46;3.55;;;1.70;;
70322;SDS011;57735;56.264;43.898;2023-07-13T07:17:17;2.78;;;1.40;;
70322;SDS011;57735;56.264;43.898;2023-07-13T07:19:48;2.95;;;1.65;;
70322;SDS011;57735;56.264;43.898;2023-07-13T07:22:21;6.05;;;2.08;;
70322;SDS011;57735;56.264;43.898;2023-07-13T07:24:52;2.90;;;1.50;;
70322;SDS011;57735;56.264;43.898;2023-07-13T07:27:26;3.20;;;1.77;;
70322;SDS011;57735;56.264;43.898;2023-07-13T07:29:57;5.85;;;2.08;;
70322;SDS011;57735;56.264;43.898;2023-07-13T07:32:30;5.32;;;2.00;;
70322;SDS011;57735;56.264;43.898;2023-07-13T07:35:04;4.65;;;2.10;;
70322;SDS011;57735;56.264;43.898;2023-07-13T07:37:35;5.90;;;2.05;;
70322;SDS011;57735;56.264;43.898;2023-07-13T07:40:11;2.38;;;1.88;;
70322;SDS011;57735;56.264;43.898;2023-07-13T07:42:42;4.95;;;2.20;;
70322;SDS011;57735;56.264;43.898;2023-07-13T07:45:13;9.73;;;2.30;;
70322;SDS011;57735;56.264;43.898;2023-07-13T07:47:44;5.45;;;2.25;;
70322;SDS011;57735;56.264;43.898;2023-07-13T07:50:15;5.53;;;1.80;;
70322;SDS011;57735;56.264;43.898;2023-07-13T07:52:46;4.13;;;1.95;;
70322;SDS011;57735;56.264;43.898;2023-07-13T07:55:17;4.20;;;1.98;;
70322;SDS011;57735;56.264;43.898;2023-07-13T07:57:48;5.80;;;2.38;;
70322;SDS011;57735;56.264;43.898;2023-07-13T08:00:20;4.40;;;1.63;;
70322;SDS011;57735;56.264;43.898;2023-07-13T08:02:51;2.85;;;2.10;;
70322;SDS011;57735;56.264;43.898;2023-07-13T08:05:25;4.80;;;1.88;;
70322;SDS011;57735;56.264;43.898;2023-07-13T08:07:56;6.50;;;2.30;;
70322;SDS011;57735;56.264;43.898;2023-07-13T08:10:27;4.40;;;1.88;;
70322;SDS011;57735;56.264;43.898;2023-07-13T08:12:58;5.40;;;1.83;;
70322;SDS011;57735;56.264;43.898;2023-07-13T08:15:28;3.30;;;1.80;;
70322;SDS011;57735;56.264;43.898;2023-07-13T08:18:02;4.20;;;1.75;;
70322;SDS011;57735;56.264;43.898;2023-07-13T08:20:33;7.05;;;2.10;;
70322;SDS011;57735;56.264;43.898;2023-07-13T08:23:07;4.93;;;1.77;;
70322;SDS011;57735;56.264;43.898;2023-07-13T08:25:40;3.55;;;2.20;;
70322;SDS011;57735;56.264;43.898;2023-07-13T08:28:20;4.80;;;2.42;;
70322;SDS011;57735;56.264;43.898;2023-07-13T08:33:24;4.25;;;2.50;;
70322;SDS011;57735;56.264;43.898;2023-07-13T08:35:56;8.18;;;2.55;;
70322;SDS011;57735;56.264;43.898;2023-07-13T08:38:27;11.00;;;2.63;;
70322;SDS011;57735;56.264;43.898;2023-07-13T08:40:58;5.10;;;2.15;;
70322;SDS011;57735;56.264;43.898;2023-07-13T08:43:30;6.07;;;2.33;;
70322;SDS011;57735;56.264;43.898;2023-07-13T08:46:08;5.28;;;1.85;;
70322;SDS011;57735;56.264;43.898;2023-07-13T08:48:45;4.43;;;2.15;;
70322;SDS011;57735;56.264;43.898;2023-07-13T08:54:19;8.32;;;3.08;;
70322;SDS011;57735;56.264;43.898;2023-07-13T08:56:53;6.57;;;2.70;;
70322;SDS011;57735;56.264;43.898;2023-07-13T08:59:25;5.25;;;2.33;;
70322;SDS011;57735;56.264;43.898;2023-07-13T09:10:53;4.72;;;2.05;;
70322;SDS011;57735;56.264;43.898;2023-07-13T09:13:44;3.72;;;2.17;;
70322;SDS011;57735;56.264;43.898;2023-07-13T09:16:22;5.55;;;2.03;;
70322;SDS011;57735;56.264;43.898;2023-07-13T09:18:56;4.10;;;2.17;;
70322;SDS011;57735;56.264;43.898;2023-07-13T09:21:34;5.38;;;3.00;;
70322;SDS011;57735;56.264;43.898;2023-07-13T09:27:19;3.22;;;2.35;;
70322;SDS011;57735;56.264;43.898;2023-07-13T09:29:58;4.95;;;2.50;;
70322;SDS011;57735;56.264;43.898;2023-07-13T09:32:50;4.85;;;2.83;;
70322;SDS011;57735;56.264;43.898;2023-07-13T09:35:24;6.40;;;3.03;;
70322;SDS011;57735;56.264;43.898;2023-07-13T09:38:12;3.72;;;2.53;;
70322;SDS011;57735;56.264;43.898;2023-07-13T09:43:29;10.35;;;2.97;;
70322;SDS011;57735;56.264;43.898;2023-07-13T09:46:00;6.75;;;2.45;;
70322;SDS011;57735;56.264;43.898;2023-07-13T09:48:35;7.18;;;2.88;;
70322;SDS011;57735;56.264;43.898;2023-07-13T09:51:12;4.03;;;2.30;;
70322;SDS011;57735;56.264;43.898;2023-07-13T09:53:47;7.68;;;2.40;;
70322;SDS011;57735;56.264;43.898;2023-07-13T09:56:36;5.10;;;2.33;;
70322;SDS011;57735;56.264;43.898;2023-07-13T09:59:18;9.43;;;2.72;;
70322;SDS011;57735;56.264;43.898;2023-07-13T10:01:51;4.65;;;3.00;;
70322;SDS011;57735;56.264;43.898;2023-07-13T10:04:27;5.53;;;2.75;;
70322;SDS011;57735;56.264;43.898;2023-07-13T10:07:07;6.55;;;2.65;;
70322;SDS011;57735;56.264;43.898;2023-07-13T10:09:39;4.55;;;1.80;;
70322;SDS011;57735;56.264;43.898;2023-07-13T10:12:14;14.07;;;2.60;;
70322;SDS011;57735;56.264;43.898;2023-07-13T10:14:45;4.05;;;2.42;;
70322;SDS011;57735;56.264;43.898;2023-07-13T10:17:18;5.30;;;2.70;;
70322;SDS011;57735;56.264;43.898;2023-07-13T10:19:50;6.18;;;3.10;;
70322;SDS011;57735;56.264;43.898;2023-07-13T10:22:26;5.72;;;2.42;;
70322;SDS011;57735;56.264;43.898;2023-07-13T10:25:03;5.35;;;2.40;;
70322;SDS011;57735;56.264;43.898;2023-07-13T10:27:53;3.90;;;2.00;;
70322;SDS011;57735;56.264;43.898;2023-07-13T10:30:30;2.97;;;1.85;;
70322;SDS011;57735;56.264;43.898;2023-07-13T10:33:08;5.70;;;1.90;;
70322;SDS011;57735;56.264;43.898;2023-07-13T10:35:43;3.92;;;1.50;;
70322;SDS011;57735;56.264;43.898;2023-07-13T10:38:20;3.13;;;2.00;;
70322;SDS011;57735;56.264;43.898;2023-07-13T10:40:58;4.22;;;2.13;;
70322;SDS011;57735;56.264;43.898;2023-07-13T10:43:35;4.93;;;1.63;;
70322;SDS011;57735;56.264;43.898;2023-07-13T10:46:11;2.35;;;1.50;;
70322;SDS011;57735;56.264;43.898;2023-07-13T10:48:53;5.53;;;1.88;;
70322;SDS011;57735;56.264;43.898;2023-07-13T10:51:30;6.25;;;2.22;;
70322;SDS011;57735;56.264;43.898;2023-07-13T10:54:21;3.72;;;1.75;;
70322;SDS011;57735;56.264;43.898;2023-07-13T10:59:43;10.32;;;2.42;;
70322;SDS011;57735;56.264;43.898;2023-07-13T11:02:22;4.82;;;1.88;;
70322;SDS011;57735;56.264;43.898;2023-07-13T11:04:58;3.63;;;1.90;;
70322;SDS011;57735;56.264;43.898;2023-07-13T11:07:32;12.52;;;2.25;;
70322;SDS011;57735;56.264;43.898;2023-07-13T11:13:37;3.17;;;1.67;;
70322;SDS011;57735;56.264;43.898;2023-07-13T11:16:35;4.35;;;2.00;;
70322;SDS011;57735;56.264;43.898;2023-07-13T11:22:01;6.82;;;2.25;;
70322;SDS011;57735;56.264;43.898;2023-07-13T11:27:45;6.22;;;2.40;;
70322;SDS011;57735;56.264;43.898;2023-07-13T11:33:10;7.90;;;1.98;;
70322;SDS011;57735;56.264;43.898;2023-07-13T11:36:05;4.47;;;1.83;;
70322;SDS011;57735;56.264;43.898;2023-07-13T11:38:43;3.55;;;1.50;;
70322;SDS011;57735;56.264;43.898;2023-07-13T11:41:17;3.17;;;1.80;;
70322;SDS011;57735;56.264;43.898;2023-07-13T11:43:54;5.60;;;1.67;;
70322;SDS011;57735;56.264;43.898;2023-07-13T11:46:27;6.53;;;1.90;;
70322;SDS011;57735;56.264;43.898;2023-07-13T11:48:58;4.30;;;1.48;;
70322;SDS011;57735;56.264;43.898;2023-07-13T11:51:33;5.40;;;1.70;;
70322;SDS011;57735;56.264;43.898;2023-07-13T11:54:14;6.63;;;2.20;;
70322;SDS011;57735;56.264;43.898;2023-07-13T11:56:55;3.08;;;1.58;;
70322;SDS011;57735;56.264;43.898;2023-07-13T11:59:29;5.35;;;2.25;;
70322;SDS011;57735;56.264;43.898;2023-07-13T12:02:00;5.20;;;1.80;;
70322;SDS011;57735;56.264;43.898;2023-07-13T12:04:33;3.10;;;1.85;;
70322;SDS011;57735;56.264;43.898;2023-07-13T12:07:06;3.47;;;2.13;;
70322;SDS011;57735;56.264;43.898;2023-07-13T12:09:47;6.40;;;1.95;;
70322;SDS011;57735;56.264;43.898;2023-07-13T12:12:21;7.60;;;1.95;;
70322;SDS011;57735;56.264;43.898;2023-07-13T12:15:05;5.40;;;1.60;;
70322;SDS011;57735;56.264;43.898;2023-07-13T12:17:36;4.15;;;1.90;;
70322;SDS011;57735;56.264;43.898;2023-07-13T12:20:19;3.58;;;1.92;;
70322;SDS011;57735;56.264;43.898;2023-07-13T12:22:52;7.72;;;2.28;;
70322;SDS011;57735;56.264;43.898;2023-07-13T12:25:23;8.55;;;2.00;;
70322;SDS011;57735;56.264;43.898;2023-07-13T12:27:55;6.13;;;1.30;;
70322;SDS011;57735;56.264;43.898;2023-07-13T12:33:06;5.25;;;1.58;;
70322;SDS011;57735;56.264;43.898;2023-07-13T12:35:42;10.35;;;2.00;;
70322;SDS011;57735;56.264;43.898;2023-07-13T12:38:17;2.65;;;1.70;;
70322;SDS011;57735;56.264;43.898;2023-07-13T12:40:54;4.22;;;1.90;;
70322;SDS011;57735;56.264;43.898;2023-07-13T12:43:32;10.18;;;2.03;;
70322;SDS011;57735;56.264;43.898;2023-07-13T12:46:20;2.47;;;1.67;;
70322;SDS011;57735;56.264;43.898;2023-07-13T12:48:54;5.55;;;1.83;;
70322;SDS011;57735;56.264;43.898;2023-07-13T12:51:25;3.83;;;1.92;;
70322;SDS011;57735;56.264;43.898;2023-07-13T12:54:05;3.88;;;1.85;;
70322;SDS011;57735;56.264;43.898;2023-07-13T12:56:42;3.45;;;1.63;;
70322;SDS011;57735;56.264;43.898;2023-07-13T12:59:16;3.88;;;1.80;;
70322;SDS011;57735;56.264;43.898;2023-07-13T13:01:49;3.28;;;1.88;;
70322;SDS011;57735;56.264;43.898;2023-07-13T13:04:20;4.95;;;2.08;;
70322;SDS011;57735;56.264;43.898;2023-07-13T13:07:00;4.75;;;1.80;;
70322;SDS011;57735;56.264;43.898;2023-07-13T13:09:34;4.35;;;2.00;;
70322;SDS011;57735;56.264;43.898;2023-07-13T13:12:05;15.13;;;2.85;;
70322;SDS011;57735;56.264;43.898;2023-07-13T13:14:37;6.15;;;1.63;;
70322;SDS011;57735;56.264;43.898;2023-07-13T13:17:18;5.03;;;1.52;;
70322;SDS011;57735;56.264;43.898;2023-07-13T13:19:51;5.70;;;1.65;;
70322;SDS011;57735;56.264;43.898;2023-07-13T13:22:25;2.35;;;1.70;;
70322;SDS011;57735;56.264;43.898;2023-07-13T13:24:59;2.17;;;1.50;;
70322;SDS011;57735;56.264;43.898;2023-07-13T13:27:30;4.60;;;1.73;;
70322;SDS011;57735;56.264;43.898;2023-07-13T13:30:01;2.40;;;1.60;;
70322;SDS011;57735;56.264;43.898;2023-07-13T13:32:34;3.72;;;1.50;;
70322;SDS011;57735;56.264;43.898;2023-07-13T13:35:05;7.78;;;1.60;;
70322;SDS011;57735;56.264;43.898;2023-07-13T13:37:45;3.45;;;1.55;;
70322;SDS011;57735;56.264;43.898;2023-07-13T13:40:19;3.10;;;1.40;;
70322;SDS011;57735;56.264;43.898;2023-07-13T13:42:51;3.83;;;1.85;;
70322;SDS011;57735;56.264;43.898;2023-07-13T13:45:25;3.63;;;1.67;;
70322;SDS011;57735;56.264;43.898;2023-07-13T13:47:56;4.63;;;1.90;;
70322;SDS011;57735;56.264;43.898;2023-07-13T13:50:28;2.50;;;1.60;;
70322;SDS011;57735;56.264;43.898;2023-07-13T13:52:58;4.15;;;1.90;;
70322;SDS011;57735;56.264;43.898;2023-07-13T13:55:29;3.55;;;1.80;;
70322;SDS011;57735;56.264;43.898;2023-07-13T13:58:00;2.72;;;1.55;;
70322;SDS011;57735;56.264;43.898;2023-07-13T14:00:31;7.47;;;1.80;;
70322;SDS011;57735;56.264;43.898;2023-07-13T14:03:02;6.15;;;2.38;;
70322;SDS011;57735;56.264;43.898;2023-07-13T14:05:37;3.53;;;1.83;;
70322;SDS011;57735;56.264;43.898;2023-07-13T14:08:17;3.88;;;1.85;;
70322;SDS011;57735;56.264;43.898;2023-07-13T14:10:50;6.60;;;2.63;;
70322;SDS011;57735;56.264;43.898;2023-07-13T14:13:28;5.55;;;2.05;;
70322;SDS011;57735;56.264;43.898;2023-07-13T14:16:10;3.90;;;1.90;;
70322;SDS011;57735;56.264;43.898;2023-07-13T14:18:43;4.25;;;1.90;;
70322;SDS011;57735;56.264;43.898;2023-07-13T14:21:16;4.50;;;1.95;;
70322;SDS011;57735;56.264;43.898;2023-07-13T14:23:50;8.35;;;2.10;;
70322;SDS011;57735;56.264;43.898;2023-07-13T14:26:26;4.32;;;1.73;;
70322;SDS011;57735;56.264;43.898;2023-07-13T14:28:57;6.82;;;1.90;;
70322;SDS011;57735;56.264;43.898;2023-07-13T14:31:29;6.20;;;1.90;;
70322;SDS011;57735;56.264;43.898;2023-07-13T14:34:05;3.15;;;1.70;;
70322;SDS011;57735;56.264;43.898;2023-07-13T14:36:45;6.03;;;2.53;;
70322;SDS011;57735;56.264;43.898;2023-07-13T14:39:23;4.60;;;1.95;;
70322;SDS011;57735;56.264;43.898;2023-07-13T14:41:55;3.67;;;1.98;;
70322;SDS011;57735;56.264;43.898;2023-07-13T14:44:30;4.35;;;2.00;;
70322;SDS011;57735;56.264;43.898;2023-07-13T14:47:03;6.05;;;1.90;;
70322;SDS011;57735;56.264;43.898;2023-07-13T14:49:36;5.03;;;2.53;;
70322;SDS011;57735;56.264;43.898;2023-07-13T14:52:13;6.68;;;1.90;;
70322;SDS011;57735;56.264;43.898;2023-07-13T14:54:48;5.03;;;1.85;;
70322;SDS011;57735;56.264;43.898;2023-07-13T14:57:19;4.32;;;1.80;;
70322;SDS011;57735;56.264;43.898;2023-07-13T14:59:50;3.92;;;1.60;;
70322;SDS011;57735;56.264;43.898;2023-07-13T15:05:18;6.47;;;1.88;;
70322;SDS011;57735;56.264;43.898;2023-07-13T15:07:52;4.80;;;1.92;;
70322;SDS011;57735;56.264;43.898;2023-07-13T15:10:24;10.10;;;2.63;;
70322;SDS011;57735;56.264;43.898;2023-07-13T15:13:01;4.05;;;1.70;;
70322;SDS011;57735;56.264;43.898;2023-07-13T15:15:45;4.35;;;1.80;;
70322;SDS011;57735;56.264;43.898;2023-07-13T15:18:22;5.18;;;1.90;;
70322;SDS011;57735;56.264;43.898;2023-07-13T15:20:57;2.75;;;1.98;;
70322;SDS011;57735;56.264;43.898;2023-07-13T15:23:32;5.82;;;2.20;;
70322;SDS011;57735;56.264;43.898;2023-07-13T15:26:09;3.70;;;1.65;;
70322;SDS011;57735;56.264;43.898;2023-07-13T15:28:44;3.85;;;1.70;;
70322;SDS011;57735;56.264;43.898;2023-07-13T15:31:20;6.07;;;2.20;;
70322;SDS011;57735;56.264;43.898;2023-07-13T15:33:53;6.68;;;2.33;;
70322;SDS011;57735;56.264;43.898;2023-07-13T15:36:27;4.15;;;1.80;;
70322;SDS011;57735;56.264;43.898;2023-07-13T15:38:58;3.05;;;2.03;;
70322;SDS011;57735;56.264;43.898;2023-07-13T15:41:29;5.72;;;2.20;;
70322;SDS011;57735;56.264;43.898;2023-07-13T15:44:22;5.03;;;1.92;;
70322;SDS011;57735;56.264;43.898;2023-07-13T15:46:56;7.82;;;2.25;;
70322;SDS011;57735;56.264;43.898;2023-07-13T15:49:27;12.82;;;3.05;;
70322;SDS011;57735;56.264;43.898;2023-07-13T15:51:58;4.55;;;2.33;;
70322;SDS011;57735;56.264;43.898;2023-07-13T15:54:29;8.95;;;2.50;;